createdAt,value
2018-09-15T00:01:42.503Z,78.80
2018-09-15T00:04:12.103Z,80.40
2018-09-15T00:06:41.537Z,79.40
2018-09-15T00:09:11.466Z,80.10
2018-09-15T00:11:42.204Z,80.80
2018-09-15T00:14:11.973Z,80.00
2018-09-15T00:16:42.803Z,80.90
2018-09-15T00:19:12.414Z,83.70
2018-09-15T00:21:42.050Z,82.60
2018-09-15T00:24:11.670Z,83.30
2018-09-15T00:26:41.858Z,83.70
2018-09-15T00:29:11.335Z,84.90
2018-09-15T00:31:40.907Z,85.10
2018-09-15T00:34:10.646Z,85.00
2018-09-15T00:36:40.201Z,86.20
2018-09-15T00:39:11.821Z,86.30
2018-09-15T00:41:42.396Z,87.90
2018-09-15T00:44:12.001Z,89.40
2018-09-15T00:46:41.593Z,88.00
2018-09-15T00:49:11.221Z,89.90
2018-09-15T00:51:40.909Z,90.00
2018-09-15T00:54:10.506Z,89.90
2018-09-15T00:56:40.055Z,90.00
2018-09-15T00:59:09.724Z,90.60
2018-09-15T01:01:39.565Z,90.90
2018-09-15T01:04:09.769Z,91.00
2018-09-15T01:06:39.477Z,90.90
2018-09-15T01:09:10.335Z,91.20
2018-09-15T01:11:40.147Z,92.00
2018-09-15T01:14:10.063Z,92.70
2018-09-15T01:16:39.454Z,92.50
2018-09-15T01:19:09.174Z,92.60
2018-09-15T01:21:38.847Z,93.80
2018-09-15T01:24:09.720Z,92.80
2018-09-15T01:26:39.548Z,93.50
2018-09-15T01:29:09.220Z,93.60
2018-09-15T01:31:38.808Z,94.30
2018-09-15T01:34:08.455Z,94.60
2018-09-15T01:36:38.056Z,94.30
2018-09-15T01:39:10.128Z,94.70
2018-09-15T01:41:40.267Z,94.40
2018-09-15T01:44:10.098Z,94.60
2018-09-15T01:46:39.641Z,95.00
2018-09-15T01:49:09.261Z,94.90
2018-09-15T01:51:39.002Z,95.20
2018-09-15T01:54:08.575Z,95.70
2018-09-15T01:56:38.199Z,96.30
2018-09-15T01:59:07.766Z,96.70
2018-09-15T02:01:37.448Z,97.20
2018-09-15T02:04:07.817Z,97.20
2018-09-15T02:06:37.577Z,97.70
2018-09-15T02:09:12.304Z,97.50
2018-09-15T02:11:42.196Z,96.50
2018-09-15T02:14:11.876Z,96.90
2018-09-15T02:16:41.576Z,96.90
2018-09-15T02:19:11.275Z,97.50
2018-09-15T02:21:40.736Z,97.60
2018-09-15T02:24:13.349Z,98.10
2018-09-15T02:26:43.115Z,98.10
2018-09-15T02:29:12.652Z,98.30
2018-09-15T02:31:42.825Z,98.80
2018-09-15T02:34:13.077Z,98.50
2018-09-15T02:36:42.776Z,98.90
2018-09-15T02:39:14.460Z,99.50
2018-09-15T02:41:44.839Z,99.40
2018-09-15T02:44:14.375Z,99.50
2018-09-15T02:46:43.958Z,99.90
2018-09-15T02:49:13.602Z,99.90
2018-09-15T02:51:43.306Z,99.90
2018-09-15T02:54:12.874Z,99.90
2018-09-15T02:56:42.376Z,99.90
2018-09-15T02:59:12.195Z,99.90
2018-09-15T03:01:41.774Z,99.90
2018-09-15T03:04:11.344Z,99.90
2018-09-15T03:06:41.129Z,99.90
2018-09-15T03:09:12.154Z,99.90
2018-09-15T03:11:41.917Z,99.90
2018-09-15T03:14:11.490Z,99.90
2018-09-15T03:16:41.024Z,99.90
2018-09-15T03:19:10.688Z,99.90
2018-09-15T03:21:40.449Z,99.90
2018-09-15T03:24:10.213Z,99.90
2018-09-15T03:26:39.892Z,99.90
2018-09-15T03:29:09.549Z,99.90
2018-09-15T03:31:39.244Z,99.90
2018-09-15T03:34:09.775Z,99.90
2018-09-15T03:36:39.278Z,99.90
2018-09-15T03:39:10.953Z,99.90
2018-09-15T03:41:40.764Z,99.90
2018-09-15T03:44:11.125Z,99.90
2018-09-15T03:46:40.782Z,99.90
2018-09-15T03:49:10.511Z,99.90
2018-09-15T03:51:40.311Z,99.90
2018-09-15T03:54:16.614Z,99.90
2018-09-15T03:56:46.085Z,99.90
2018-09-15T03:59:16.943Z,99.90
2018-09-15T04:01:47.072Z,99.90
2018-09-15T04:04:16.741Z,99.90
2018-09-15T04:06:47.324Z,99.90
2018-09-15T04:09:16.865Z,99.90
2018-09-15T04:11:46.606Z,99.90
2018-09-15T04:14:16.301Z,99.90
2018-09-15T04:16:45.968Z,99.90
2018-09-15T04:19:15.548Z,99.90
2018-09-15T04:21:45.211Z,99.90
2018-09-15T04:24:14.846Z,99.90
2018-09-15T04:26:44.997Z,99.90
2018-09-15T04:29:14.555Z,99.90
2018-09-15T04:31:44.788Z,99.90
2018-09-15T04:34:14.565Z,99.90
2018-09-15T04:36:45.181Z,99.90
2018-09-15T04:39:14.955Z,99.90
2018-09-15T04:41:44.708Z,99.90
2018-09-15T04:44:14.890Z,99.90
2018-09-15T04:46:44.779Z,99.90
2018-09-15T04:49:14.524Z,99.90
2018-09-15T04:51:44.389Z,99.90
2018-09-15T04:54:13.807Z,99.90
2018-09-15T04:56:43.860Z,99.90
2018-09-15T04:59:13.434Z,99.90
2018-09-15T05:01:43.284Z,99.90
2018-09-15T05:04:12.882Z,99.90
2018-09-15T05:06:42.953Z,99.90
2018-09-15T05:09:13.469Z,99.90
2018-09-15T05:11:43.528Z,99.90
2018-09-15T05:14:13.240Z,99.90
2018-09-15T05:16:43.506Z,99.90
2018-09-15T05:19:14.317Z,99.90
2018-09-15T05:21:44.156Z,99.90
2018-09-15T05:24:13.773Z,99.90
2018-09-15T05:26:44.797Z,99.90
2018-09-15T05:29:15.541Z,99.90
2018-09-15T05:31:45.256Z,99.90
2018-09-15T05:34:15.055Z,99.90
2018-09-15T05:36:44.854Z,99.90
2018-09-15T05:39:14.877Z,99.90
2018-09-15T05:41:44.401Z,99.90
2018-09-15T05:44:14.095Z,99.90
2018-09-15T05:46:44.009Z,99.90
2018-09-15T05:49:14.146Z,99.90
2018-09-15T05:51:43.737Z,99.90
2018-09-15T05:54:13.314Z,99.90
2018-09-15T05:56:43.130Z,99.90
2018-09-15T05:59:12.820Z,99.90
2018-09-15T06:01:42.409Z,99.90
2018-09-15T06:04:11.959Z,99.90
2018-09-15T06:06:41.818Z,99.90
2018-09-15T06:09:12.614Z,99.90
2018-09-15T06:11:42.843Z,99.50
2018-09-15T06:14:12.624Z,99.60
2018-09-15T06:16:42.951Z,98.90
2018-09-15T06:19:12.422Z,98.80
2018-09-15T06:21:42.764Z,98.80
2018-09-15T06:24:12.504Z,98.60
2018-09-15T06:26:42.320Z,98.70
2018-09-15T06:29:11.955Z,98.30
2018-09-15T06:31:41.466Z,98.60
2018-09-15T06:34:10.905Z,97.20
2018-09-15T06:36:41.002Z,91.40
2018-09-15T06:39:11.586Z,80.90
2018-09-15T06:41:41.159Z,69.20
2018-09-15T06:44:10.905Z,56.00
2018-09-15T06:46:40.598Z,52.20
2018-09-15T06:49:10.202Z,46.00
2018-09-15T06:51:40.190Z,41.70
2018-09-15T06:54:10.008Z,40.70
2018-09-15T06:56:39.869Z,36.70
2018-09-15T06:59:09.477Z,36.70
2018-09-15T07:01:40.352Z,38.90
2018-09-15T07:04:11.864Z,41.50
2018-09-15T07:06:41.896Z,43.00
2018-09-15T07:09:13.182Z,44.50
2018-09-15T07:11:42.778Z,48.90
2018-09-15T07:14:12.472Z,48.10
2018-09-15T07:16:42.147Z,49.70
2018-09-15T07:19:11.833Z,45.40
2018-09-15T07:21:42.020Z,43.90
2018-09-15T07:24:12.277Z,46.10
2018-09-15T07:26:42.031Z,47.90
2018-09-15T07:29:11.741Z,49.60
2018-09-15T07:31:41.517Z,47.50
2018-09-15T07:34:11.261Z,50.20
2018-09-15T07:36:40.986Z,51.00
2018-09-15T07:39:11.948Z,45.70
2018-09-15T07:41:41.962Z,42.80
2018-09-15T07:44:11.715Z,39.50
2018-09-15T07:46:41.347Z,38.70
2018-09-15T07:49:10.856Z,36.40
2018-09-15T07:51:40.575Z,34.80
2018-09-15T07:54:10.003Z,32.70
2018-09-15T07:56:39.681Z,31.20
2018-09-15T07:59:09.316Z,29.60
2018-09-15T08:01:38.899Z,29.70
2018-09-15T08:04:09.507Z,29.90
2018-09-15T08:06:39.134Z,31.00
2018-09-15T08:09:09.071Z,32.20
2018-09-15T08:11:38.800Z,29.20
2018-09-15T08:14:08.596Z,28.40
2018-09-15T08:16:38.303Z,30.40
2018-09-15T08:19:08.073Z,28.70
2018-09-15T08:21:37.701Z,28.50
2018-09-15T08:24:07.785Z,27.30
2018-09-15T08:26:38.077Z,27.90
2018-09-15T08:29:07.835Z,27.40
2018-09-15T08:31:38.941Z,28.50
2018-09-15T08:34:09.449Z,28.70
2018-09-15T08:36:39.136Z,27.90
2018-09-15T08:39:10.078Z,27.30
2018-09-15T08:41:39.844Z,28.10
2018-09-15T08:44:09.622Z,26.70
2018-09-15T08:46:39.409Z,27.90
2018-09-15T08:49:09.308Z,25.40
2018-09-15T08:51:39.530Z,24.50
2018-09-15T08:54:09.337Z,25.60
2018-09-15T08:56:38.983Z,24.50
2018-09-15T08:59:08.677Z,23.70
2018-09-15T09:01:38.487Z,25.10
2018-09-15T09:04:08.229Z,23.40
2018-09-15T09:06:37.764Z,23.70
2018-09-15T09:09:11.218Z,25.60
2018-09-15T09:11:40.857Z,23.20
2018-09-15T09:14:10.514Z,24.00
2018-09-15T09:16:40.241Z,27.30
2018-09-15T09:19:10.531Z,25.00
2018-09-15T09:21:41.127Z,24.40
2018-09-15T09:24:11.289Z,23.40
2018-09-15T09:26:41.004Z,23.50
2018-09-15T09:29:10.948Z,23.30
2018-09-15T09:31:40.538Z,26.30
2018-09-15T09:34:10.453Z,27.40
2018-09-15T09:36:40.057Z,25.60
2018-09-15T09:39:12.344Z,26.70
2018-09-15T09:41:43.281Z,27.10
2018-09-15T09:44:12.992Z,28.00
2018-09-15T09:46:42.733Z,25.20
2018-09-15T09:49:12.504Z,26.00
2018-09-15T09:51:42.214Z,26.40
2018-09-15T09:54:12.303Z,27.30
2018-09-15T09:56:42.092Z,26.70
2018-09-15T09:59:11.824Z,25.90
2018-09-15T10:01:46.394Z,27.20
2018-09-15T10:04:16.090Z,25.30
2018-09-15T10:06:45.851Z,24.10
2018-09-15T10:09:15.537Z,24.60
2018-09-15T10:11:45.408Z,25.40
2018-09-15T10:14:15.148Z,27.90
2018-09-15T10:16:46.098Z,28.80
2018-09-15T10:19:16.045Z,30.20
2018-09-15T10:21:45.806Z,31.80
2018-09-15T10:24:15.589Z,33.90
2018-09-15T10:26:45.322Z,33.60
2018-09-15T10:29:14.941Z,31.40
2018-09-15T10:31:47.475Z,33.20
2018-09-15T10:34:17.126Z,34.50
2018-09-15T10:36:46.749Z,35.70
2018-09-15T10:39:16.433Z,36.20
2018-09-15T10:41:46.038Z,34.80
2018-09-15T10:44:15.911Z,33.80
2018-09-15T10:46:45.756Z,33.60
2018-09-15T10:49:15.391Z,34.90
2018-09-15T10:51:45.120Z,36.90
2018-09-15T10:54:14.986Z,38.00
2018-09-15T10:56:44.738Z,35.20
2018-09-15T10:59:14.340Z,35.40
2018-09-15T11:01:44.143Z,37.30
2018-09-15T11:04:13.820Z,37.90
2018-09-15T11:06:44.379Z,39.20
2018-09-15T11:09:14.068Z,39.80
2018-09-15T11:11:43.687Z,40.40
2018-09-15T11:14:15.897Z,41.60
2018-09-15T11:16:45.649Z,41.40
2018-09-15T11:19:22.137Z,41.80
2018-09-15T11:21:52.083Z,42.40
2018-09-15T11:24:21.691Z,42.40
2018-09-15T11:26:51.394Z,42.50
2018-09-15T11:29:21.091Z,43.00
2018-09-15T11:31:50.684Z,42.00
2018-09-15T11:34:20.358Z,42.70
2018-09-15T11:36:51.282Z,42.30
2018-09-15T11:39:20.995Z,43.10
2018-09-15T11:41:50.546Z,42.50
2018-09-15T11:44:20.485Z,42.10
2018-09-15T11:46:50.078Z,42.70
2018-09-15T11:49:19.800Z,42.20
2018-09-15T11:51:49.517Z,42.40
2018-09-15T11:54:19.263Z,41.70
2018-09-15T11:56:49.036Z,39.50
2018-09-15T11:59:18.898Z,39.80
2018-09-15T12:01:48.644Z,41.40
2018-09-15T12:04:18.445Z,40.60
2018-09-15T12:06:48.051Z,39.10
2018-09-15T12:09:17.885Z,39.70
2018-09-15T12:11:47.480Z,39.50
2018-09-15T12:14:17.129Z,40.40
2018-09-15T12:16:46.903Z,41.90
2018-09-15T12:19:16.532Z,41.50
2018-09-15T12:21:46.815Z,40.80
2018-09-15T12:24:19.362Z,41.70
2018-09-15T12:26:49.277Z,41.00
2018-09-15T12:29:18.996Z,42.70
2018-09-15T12:31:48.643Z,42.20
2018-09-15T12:34:18.256Z,42.10
2018-09-15T12:36:47.832Z,42.00
2018-09-15T12:39:17.981Z,42.00
2018-09-15T12:41:47.736Z,41.10
2018-09-15T12:44:17.318Z,41.30
2018-09-15T12:46:46.879Z,41.40
2018-09-15T12:49:16.401Z,41.20
2018-09-15T12:51:46.160Z,40.20
2018-09-15T12:54:15.848Z,38.80
2018-09-15T12:56:45.574Z,37.60
2018-09-15T12:59:15.481Z,39.30
2018-09-15T13:01:45.105Z,39.20
2018-09-15T13:04:14.775Z,39.70
2018-09-15T13:06:44.492Z,40.20
2018-09-15T13:09:14.198Z,41.00
2018-09-15T13:11:44.009Z,40.60
2018-09-15T13:14:13.708Z,41.30
2018-09-15T13:16:43.431Z,42.10
2018-09-15T13:19:13.137Z,42.70
2018-09-15T13:21:42.929Z,43.20
2018-09-15T13:24:12.570Z,43.30
2018-09-15T13:26:42.165Z,43.10
2018-09-15T13:29:11.693Z,43.10
2018-09-15T13:31:41.428Z,42.80
2018-09-15T13:34:11.237Z,43.30
2018-09-15T13:36:40.905Z,41.60
2018-09-15T13:39:11.988Z,41.90
2018-09-15T13:41:41.783Z,41.90
2018-09-15T13:44:11.591Z,43.40
2018-09-15T13:46:41.372Z,41.20
2018-09-15T13:49:11.078Z,41.00
2018-09-15T13:51:40.890Z,40.90
2018-09-15T13:54:10.600Z,40.90
2018-09-15T13:56:40.561Z,42.20
2018-09-15T13:59:10.337Z,41.40
2018-09-15T14:01:39.925Z,41.40
2018-09-15T14:04:09.986Z,42.10
2018-09-15T14:06:39.653Z,42.10
2018-09-15T14:09:10.880Z,41.40
2018-09-15T14:11:40.600Z,42.10
2018-09-15T14:14:10.302Z,42.90
2018-09-15T14:16:40.263Z,42.70
2018-09-15T14:19:09.906Z,43.70
2018-09-15T14:21:39.681Z,42.70
2018-09-15T14:24:09.473Z,43.80
2018-09-15T14:26:39.313Z,42.90
2018-09-15T14:29:09.403Z,42.30
2018-09-15T14:31:39.237Z,42.80
2018-09-15T14:34:09.112Z,42.50
2018-09-15T14:36:38.799Z,42.70
2018-09-15T14:39:10.763Z,43.60
2018-09-15T14:41:41.237Z,43.30
2018-09-15T14:44:10.858Z,43.40
2018-09-15T14:46:40.454Z,43.60
2018-09-15T14:49:10.264Z,43.30
2018-09-15T14:51:40.731Z,43.90
2018-09-15T14:54:10.501Z,44.80
2018-09-15T14:56:40.019Z,45.50
2018-09-15T14:59:09.756Z,45.10
2018-09-15T15:01:39.405Z,44.60
2018-09-15T15:04:16.283Z,44.50
2018-09-15T15:06:45.956Z,44.30
2018-09-15T15:09:15.417Z,45.00
2018-09-15T15:11:45.378Z,46.00
2018-09-15T15:14:14.973Z,45.30
2018-09-15T15:16:44.652Z,44.20
2018-09-15T15:19:14.443Z,43.50
2018-09-15T15:21:44.100Z,43.70
2018-09-15T15:24:13.824Z,43.90
2018-09-15T15:26:43.370Z,44.50
2018-09-15T15:29:13.036Z,45.10
2018-09-15T15:31:42.693Z,46.10
2018-09-15T15:34:12.326Z,46.10
2018-09-15T15:36:42.121Z,46.50
2018-09-15T15:39:11.853Z,46.40
2018-09-15T15:41:41.617Z,45.50
2018-09-15T15:44:14.331Z,46.10
2018-09-15T15:46:44.521Z,45.70
2018-09-15T15:49:14.249Z,45.10
2018-09-15T15:51:43.963Z,45.30
2018-09-15T15:54:14.558Z,46.40
2018-09-15T15:56:45.210Z,45.60
2018-09-15T15:59:14.889Z,45.50
2018-09-15T16:01:45.678Z,45.20
2018-09-15T16:04:15.313Z,46.20
2018-09-15T16:06:51.794Z,46.50
2018-09-15T16:09:21.786Z,46.70
2018-09-15T16:11:53.940Z,47.40
2018-09-15T16:14:23.538Z,47.60
2018-09-15T16:16:53.382Z,48.10
2018-09-15T16:19:22.961Z,48.20
2018-09-15T16:21:52.632Z,49.00
2018-09-15T16:24:22.509Z,49.40
2018-09-15T16:26:52.174Z,49.90
2018-09-15T16:29:22.042Z,50.80
2018-09-15T16:31:51.892Z,50.90
2018-09-15T16:34:21.512Z,51.10
2018-09-15T16:36:54.032Z,51.30
2018-09-15T16:39:23.670Z,51.10
2018-09-15T16:41:53.409Z,51.60
2018-09-15T16:44:23.366Z,52.40
2018-09-15T16:46:53.288Z,52.60
2018-09-15T16:49:23.224Z,52.70
2018-09-15T16:51:53.423Z,52.70
2018-09-15T16:54:22.938Z,52.30
2018-09-15T16:56:52.727Z,52.10
2018-09-15T16:59:22.487Z,52.40
2018-09-15T17:01:51.993Z,52.30
2018-09-15T17:04:21.640Z,52.40
2018-09-15T17:06:51.424Z,52.60
2018-09-15T17:09:21.044Z,53.20
2018-09-15T17:11:50.940Z,53.40
2018-09-15T17:14:20.735Z,53.40
2018-09-15T17:16:50.546Z,53.20
2018-09-15T17:19:20.254Z,53.50
2018-09-15T17:21:49.841Z,54.90
2018-09-15T17:24:19.551Z,55.20
2018-09-15T17:26:49.168Z,56.00
2018-09-15T17:29:19.952Z,57.20
2018-09-15T17:31:49.699Z,57.60
2018-09-15T17:34:19.463Z,58.10
2018-09-15T17:36:49.258Z,58.50
2018-09-15T17:39:18.785Z,58.30
2018-09-15T17:41:48.537Z,58.70
2018-09-15T17:44:18.243Z,59.40
2018-09-15T17:46:47.862Z,59.40
2018-09-15T17:49:17.789Z,60.40
2018-09-15T17:51:47.752Z,61.80
2018-09-15T17:54:17.520Z,62.50
2018-09-15T17:56:47.069Z,65.20
2018-09-15T17:59:16.714Z,63.80
2018-09-15T18:01:46.437Z,66.60
2018-09-15T18:04:15.938Z,67.00
2018-09-15T18:06:45.549Z,67.60
2018-09-15T18:09:15.265Z,68.40
2018-09-15T18:11:44.924Z,69.80
2018-09-15T18:14:14.574Z,71.10
2018-09-15T18:16:44.757Z,72.40
2018-09-15T18:19:14.463Z,73.60
2018-09-15T18:21:44.464Z,74.30
2018-09-15T18:24:14.076Z,74.60
2018-09-15T18:26:43.997Z,75.80
2018-09-15T18:29:13.921Z,77.00
2018-09-15T18:31:43.860Z,78.40
2018-09-15T18:34:13.647Z,79.40
2018-09-15T18:36:43.673Z,80.50
2018-09-15T18:39:13.189Z,81.40
2018-09-15T18:41:42.941Z,82.70
2018-09-15T18:44:12.951Z,83.30
2018-09-15T18:46:42.769Z,84.90
2018-09-15T18:49:13.078Z,84.70
2018-09-15T18:51:42.988Z,85.50
2018-09-15T18:54:12.679Z,86.20
2018-09-15T18:56:42.294Z,87.40
2018-09-15T18:59:12.603Z,88.00
2018-09-15T19:01:42.960Z,88.70
2018-09-15T19:04:12.535Z,88.80
2018-09-15T19:06:42.182Z,90.00
2018-09-15T19:09:12.607Z,90.20
2018-09-15T19:11:42.618Z,90.10
2018-09-15T19:14:12.321Z,90.40
2018-09-15T19:16:42.534Z,90.50
2018-09-15T19:19:12.161Z,90.90
2018-09-15T19:21:41.989Z,91.10
2018-09-15T19:24:11.680Z,91.70
2018-09-15T19:26:42.511Z,92.00
2018-09-15T19:29:12.339Z,92.20
2018-09-15T19:31:41.985Z,92.60
2018-09-15T19:34:12.344Z,93.00
2018-09-15T19:36:41.837Z,93.20
2018-09-15T19:39:13.393Z,93.80
2018-09-15T19:41:43.753Z,94.00
2018-09-15T19:44:13.511Z,94.00
2018-09-15T19:46:44.933Z,94.30
2018-09-15T19:49:14.711Z,95.10
2018-09-15T19:51:44.624Z,95.10
2018-09-15T19:54:14.412Z,95.30
2018-09-15T19:56:43.896Z,95.40
2018-09-15T19:59:13.515Z,95.80
2018-09-15T20:01:42.980Z,95.30
2018-09-15T20:04:12.661Z,95.50
2018-09-15T20:06:42.378Z,95.80
2018-09-15T20:09:12.819Z,96.40
2018-09-15T20:11:42.704Z,96.20
2018-09-15T20:14:12.441Z,96.20
2018-09-15T20:16:40.240Z,96.70
2018-09-15T20:19:15.746Z,96.80
2018-09-15T20:21:43.521Z,97.20
2018-09-15T20:24:13.124Z,97.60
2018-09-15T20:26:42.921Z,97.80
2018-09-15T20:29:13.017Z,98.00
2018-09-15T20:31:42.645Z,98.30
2018-09-15T20:34:12.499Z,98.20
2018-09-15T20:36:44.132Z,98.50
2018-09-15T20:39:14.381Z,98.80
2018-09-15T20:41:44.128Z,98.70
2018-09-15T20:44:13.749Z,99.20
2018-09-15T20:46:43.460Z,99.20
2018-09-15T20:49:13.165Z,99.10
2018-09-15T20:51:42.810Z,99.10
2018-09-15T20:54:12.420Z,99.20
2018-09-15T20:56:42.034Z,99.20
2018-09-15T20:59:11.832Z,99.50
2018-09-15T21:01:41.395Z,99.40
2018-09-15T21:04:17.897Z,99.80
2018-09-15T21:06:47.418Z,99.90
2018-09-15T21:09:17.116Z,99.70
2018-09-15T21:11:46.726Z,99.90
2018-09-15T21:14:16.431Z,99.90
2018-09-15T21:16:46.098Z,99.90
2018-09-15T21:19:15.856Z,99.90
2018-09-15T21:21:45.505Z,99.90
2018-09-15T21:24:15.281Z,99.90
2018-09-15T21:26:44.780Z,99.90
2018-09-15T21:29:14.508Z,99.90
2018-09-15T21:31:44.335Z,99.90
2018-09-15T21:34:14.114Z,99.90
2018-09-15T21:36:43.726Z,99.90
2018-09-15T21:39:14.162Z,99.90
2018-09-15T21:41:44.332Z,99.90
2018-09-15T21:44:14.910Z,99.90
2018-09-15T21:46:44.543Z,99.90
2018-09-15T21:49:14.090Z,99.90
2018-09-15T21:51:44.241Z,99.90
2018-09-15T21:54:14.443Z,99.90
2018-09-15T21:56:44.113Z,99.90
2018-09-15T21:59:14.084Z,99.90
2018-09-15T22:01:43.812Z,99.90
2018-09-15T22:04:19.890Z,99.90
2018-09-15T22:06:52.125Z,99.90
2018-09-15T22:09:22.540Z,99.90
2018-09-15T22:11:52.629Z,99.90
2018-09-15T22:14:22.264Z,99.90
2018-09-15T22:16:52.896Z,99.90
2018-09-15T22:19:22.743Z,99.90
2018-09-15T22:21:52.509Z,99.90
2018-09-15T22:24:22.301Z,99.90
2018-09-15T22:26:52.316Z,99.90
2018-09-15T22:29:22.045Z,99.90
2018-09-15T22:31:51.857Z,99.90
2018-09-15T22:34:21.396Z,99.90
2018-09-15T22:36:51.111Z,99.90
2018-09-15T22:39:20.811Z,99.90
2018-09-15T22:41:50.421Z,99.90
2018-09-15T22:44:20.185Z,99.90
2018-09-15T22:46:49.930Z,99.90
2018-09-15T22:49:19.757Z,99.90
2018-09-15T22:51:49.470Z,99.90
2018-09-15T22:54:19.186Z,99.90
2018-09-15T22:56:48.662Z,99.90
2018-09-15T22:59:18.755Z,99.90
2018-09-15T23:01:48.394Z,99.90
2018-09-15T23:04:17.953Z,99.90
2018-09-15T23:06:54.317Z,99.90
2018-09-15T23:09:23.917Z,99.90
2018-09-15T23:12:00.249Z,99.90
2018-09-15T23:14:30.668Z,99.90
2018-09-15T23:17:00.116Z,99.90
2018-09-15T23:19:29.658Z,99.90
2018-09-15T23:21:59.897Z,99.90
2018-09-15T23:24:29.568Z,99.90
2018-09-15T23:26:59.212Z,99.90
2018-09-15T23:29:28.872Z,99.90
2018-09-15T23:31:59.047Z,99.90
2018-09-15T23:34:28.742Z,99.90
2018-09-15T23:36:58.267Z,99.90
2018-09-15T23:39:27.813Z,99.90
2018-09-15T23:41:57.478Z,99.90
2018-09-15T23:44:27.303Z,99.90
2018-09-15T23:46:56.998Z,99.90
2018-09-15T23:49:27.147Z,99.90
2018-09-15T23:51:56.768Z,99.90
2018-09-15T23:54:26.493Z,99.90
2018-09-15T23:56:56.138Z,99.90
2018-09-15T23:59:25.838Z,99.90
